sensor_id;sensor_type;location;lat;lon;timestamp;temperature;humidity
72355;SHT30;60314;55.040;73.076;2022-12-18T00:01:34;-18.93;74.97
72355;SHT30;60314;55.040;73.076;2022-12-18T00:04:05;-18.85;74.49
72355;SHT30;60314;55.040;73.076;2022-12-18T00:06:33;-18.84;73.95
72355;SHT30;60314;55.040;73.076;2022-12-18T00:09:02;-18.81;73.19
72355;SHT30;60314;55.040;73.076;2022-12-18T00:11:30;-18.81;72.92
72355;SHT30;60314;55.040;73.076;2022-12-18T00:13:58;-18.80;72.82
72355;SHT30;60314;55.040;73.076;2022-12-18T00:16:26;-18.77;71.89
72355;SHT30;60314;55.040;73.076;2022-12-18T00:18:56;-18.79;71.32
72355;SHT30;60314;55.040;73.076;2022-12-18T00:21:33;-18.79;70.98
72355;SHT30;60314;55.040;73.076;2022-12-18T00:24:00;-18.79;70.95
72355;SHT30;60314;55.040;73.076;2022-12-18T00:26:29;-18.81;71.06
72355;SHT30;60314;55.040;73.076;2022-12-18T00:29:03;-18.85;71.14
72355;SHT30;60314;55.040;73.076;2022-12-18T00:31:30;-18.85;70.35
72355;SHT30;60314;55.040;73.076;2022-12-18T00:34:11;-18.93;70.19
72355;SHT30;60314;55.040;73.076;2022-12-18T00:36:41;-18.87;71.30
72355;SHT30;60314;55.040;73.076;2022-12-18T00:39:08;-18.85;72.39
72355;SHT30;60314;55.040;73.076;2022-12-18T00:41:35;-18.80;73.19
72355;SHT30;60314;55.040;73.076;2022-12-18T00:44:20;-18.73;73.45
72355;SHT30;60314;55.040;73.076;2022-12-18T00:46:47;-18.74;73.18
72355;SHT30;60314;55.040;73.076;2022-12-18T00:49:16;-18.74;73.34
72355;SHT30;60314;55.040;73.076;2022-12-18T00:51:43;-18.80;73.86
72355;SHT30;60314;55.040;73.076;2022-12-18T00:54:12;-18.83;74.39
72355;SHT30;60314;55.040;73.076;2022-12-18T00:56:39;-18.81;74.57
72355;SHT30;60314;55.040;73.076;2022-12-18T00:59:17;-18.72;74.27
72355;SHT30;60314;55.040;73.076;2022-12-18T01:01:43;-18.67;73.88
72355;SHT30;60314;55.040;73.076;2022-12-18T01:04:10;-18.64;73.47
72355;SHT30;60314;55.040;73.076;2022-12-18T01:06:37;-18.66;73.42
72355;SHT30;60314;55.040;73.076;2022-12-18T01:09:04;-18.66;74.05
72355;SHT30;60314;55.040;73.076;2022-12-18T01:11:31;-18.64;74.62
72355;SHT30;60314;55.040;73.076;2022-12-18T01:13:57;-18.62;74.70
72355;SHT30;60314;55.040;73.076;2022-12-18T01:16:26;-18.67;75.00
72355;SHT30;60314;55.040;73.076;2022-12-18T01:18:57;-18.69;75.37
72355;SHT30;60314;55.040;73.076;2022-12-18T01:21:24;-18.72;75.37
72355;SHT30;60314;55.040;73.076;2022-12-18T01:23:53;-18.73;75.57
72355;SHT30;60314;55.040;73.076;2022-12-18T01:26:20;-18.70;75.52
72355;SHT30;60314;55.040;73.076;2022-12-18T01:28:47;-18.66;75.50
72355;SHT30;60314;55.040;73.076;2022-12-18T01:31:19;-18.64;75.81
72355;SHT30;60314;55.040;73.076;2022-12-18T01:33:46;-18.59;76.30
72355;SHT30;60314;55.040;73.076;2022-12-18T01:36:23;-18.62;76.70
72355;SHT30;60314;55.040;73.076;2022-12-18T01:38:50;-18.57;77.24
72355;SHT30;60314;55.040;73.076;2022-12-18T01:41:23;-18.57;77.57
72355;SHT30;60314;55.040;73.076;2022-12-18T01:43:54;-18.57;77.70
72355;SHT30;60314;55.040;73.076;2022-12-18T01:46:24;-18.56;77.10
72355;SHT30;60314;55.040;73.076;2022-12-18T01:49:03;-18.63;77.14
72355;SHT30;60314;55.040;73.076;2022-12-18T01:51:30;-18.63;76.96
72355;SHT30;60314;55.040;73.076;2022-12-18T01:54:06;-18.64;76.88
72355;SHT30;60314;55.040;73.076;2022-12-18T01:56:33;-18.66;76.98
72355;SHT30;60314;55.040;73.076;2022-12-18T01:59:03;-18.64;76.67
72355;SHT30;60314;55.040;73.076;2022-12-18T02:01:31;-18.64;76.62
72355;SHT30;60314;55.040;73.076;2022-12-18T02:04:21;-18.66;76.43
72355;SHT30;60314;55.040;73.076;2022-12-18T02:10:43;-18.57;75.70
72355;SHT30;60314;55.040;73.076;2022-12-18T02:19:06;-18.43;74.65
72355;SHT30;60314;55.040;73.076;2022-12-18T02:21:50;-18.36;74.11
72355;SHT30;60314;55.040;73.076;2022-12-18T02:27:13;-18.29;72.73
72355;SHT30;60314;55.040;73.076;2022-12-18T02:29:52;-18.26;72.29
72355;SHT30;60314;55.040;73.076;2022-12-18T02:32:27;-18.31;72.01
72355;SHT30;60314;55.040;73.076;2022-12-18T02:34:56;-18.32;71.32
72355;SHT30;60314;55.040;73.076;2022-12-18T02:37:26;-18.36;70.32
72355;SHT30;60314;55.040;73.076;2022-12-18T02:39:59;-18.41;69.89
72355;SHT30;60314;55.040;73.076;2022-12-18T02:42:27;-18.45;69.89
72355;SHT30;60314;55.040;73.076;2022-12-18T02:44:54;-18.45;70.35
72355;SHT30;60314;55.040;73.076;2022-12-18T02:47:33;-18.41;70.78
72355;SHT30;60314;55.040;73.076;2022-12-18T02:56:09;-18.46;70.38
72355;SHT30;60314;55.040;73.076;2022-12-18T02:58:58;-18.51;70.37
72355;SHT30;60314;55.040;73.076;2022-12-18T03:02:02;-18.55;70.63
72355;SHT30;60314;55.040;73.076;2022-12-18T03:07:01;-18.53;70.53
72355;SHT30;60314;55.040;73.076;2022-12-18T03:09:33;-18.52;69.71
72355;SHT30;60314;55.040;73.076;2022-12-18T03:12:12;-18.64;67.87
72355;SHT30;60314;55.040;73.076;2022-12-18T03:15:07;-18.85;67.23
72355;SHT30;60314;55.040;73.076;2022-12-18T03:17:46;-18.93;68.09
72355;SHT30;60314;55.040;73.076;2022-12-18T03:20:18;-19.01;68.82
72355;SHT30;60314;55.040;73.076;2022-12-18T03:22:46;-18.94;70.96
72355;SHT30;60314;55.040;73.076;2022-12-18T03:25:16;-18.87;72.20
72355;SHT30;60314;55.040;73.076;2022-12-18T03:27:47;-18.76;72.38
72355;SHT30;60314;55.040;73.076;2022-12-18T03:30:21;-18.74;70.97
72355;SHT30;60314;55.040;73.076;2022-12-18T03:33:00;-18.80;69.11
72355;SHT30;60314;55.040;73.076;2022-12-18T03:35:41;-18.90;67.77
72355;SHT30;60314;55.040;73.076;2022-12-18T03:38:20;-18.88;68.59
72355;SHT30;60314;55.040;73.076;2022-12-18T03:46:40;-18.91;68.28
72355;SHT30;60314;55.040;73.076;2022-12-18T03:49:23;-18.84;69.32
72355;SHT30;60314;55.040;73.076;2022-12-18T03:54:29;-18.74;71.89
72355;SHT30;60314;55.040;73.076;2022-12-18T03:57:09;-18.62;72.92
72355;SHT30;60314;55.040;73.076;2022-12-18T03:59:39;-18.48;73.69
72355;SHT30;60314;55.040;73.076;2022-12-18T04:02:08;-18.32;74.20
72355;SHT30;60314;55.040;73.076;2022-12-18T04:04:37;-18.24;74.46
72355;SHT30;60314;55.040;73.076;2022-12-18T04:07:05;-18.08;74.81
72355;SHT30;60314;55.040;73.076;2022-12-18T04:09:35;-17.98;75.07
72355;SHT30;60314;55.040;73.076;2022-12-18T04:12:03;-17.83;74.93
72355;SHT30;60314;55.040;73.076;2022-12-18T04:14:30;-17.67;74.91
72355;SHT30;60314;55.040;73.076;2022-12-18T04:17:03;-17.59;75.16
72355;SHT30;60314;55.040;73.076;2022-12-18T04:19:32;-17.60;75.29
72355;SHT30;60314;55.040;73.076;2022-12-18T04:22:00;-17.49;75.32
72355;SHT30;60314;55.040;73.076;2022-12-18T04:24:27;-17.40;75.10
72355;SHT30;60314;55.040;73.076;2022-12-18T04:27:06;-17.38;74.60
72355;SHT30;60314;55.040;73.076;2022-12-18T04:29:39;-17.31;74.48
72355;SHT30;60314;55.040;73.076;2022-12-18T04:32:05;-17.21;74.15
72355;SHT30;60314;55.040;73.076;2022-12-18T04:34:33;-17.19;73.97
72355;SHT30;60314;55.040;73.076;2022-12-18T04:37:10;-17.12;73.89
72355;SHT30;60314;55.040;73.076;2022-12-18T04:39:38;-17.07;73.91
72355;SHT30;60314;55.040;73.076;2022-12-18T04:42:11;-17.01;74.11
72355;SHT30;60314;55.040;73.076;2022-12-18T04:44:43;-16.93;74.09
72355;SHT30;60314;55.040;73.076;2022-12-18T04:47:09;-16.79;73.76
72355;SHT30;60314;55.040;73.076;2022-12-18T04:49:36;-16.79;73.56
72355;SHT30;60314;55.040;73.076;2022-12-18T04:52:04;-16.74;73.71
72355;SHT30;60314;55.040;73.076;2022-12-18T04:54:33;-16.73;74.00
72355;SHT30;60314;55.040;73.076;2022-12-18T04:57:00;-16.65;74.18
72355;SHT30;60314;55.040;73.076;2022-12-18T04:59:26;-16.56;74.12
72355;SHT30;60314;55.040;73.076;2022-12-18T05:01:53;-16.52;74.43
72355;SHT30;60314;55.040;73.076;2022-12-18T05:04:20;-16.46;74.86
72355;SHT30;60314;55.040;73.076;2022-12-18T05:06:46;-16.34;75.34
72355;SHT30;60314;55.040;73.076;2022-12-18T05:09:13;-16.29;75.48
72355;SHT30;60314;55.040;73.076;2022-12-18T05:11:39;-16.22;75.64
72355;SHT30;60314;55.040;73.076;2022-12-18T05:14:06;-16.18;75.84
72355;SHT30;60314;55.040;73.076;2022-12-18T05:16:32;-16.16;75.87
72355;SHT30;60314;55.040;73.076;2022-12-18T05:18:59;-16.09;75.89
72355;SHT30;60314;55.040;73.076;2022-12-18T05:21:26;-16.01;75.79
72355;SHT30;60314;55.040;73.076;2022-12-18T05:23:52;-15.90;75.54
72355;SHT30;60314;55.040;73.076;2022-12-18T05:26:19;-15.80;75.08
72355;SHT30;60314;55.040;73.076;2022-12-18T05:28:46;-15.77;75.10
72355;SHT30;60314;55.040;73.076;2022-12-18T05:31:13;-15.68;75.33
72355;SHT30;60314;55.040;73.076;2022-12-18T05:33:50;-15.60;75.29
72355;SHT30;60314;55.040;73.076;2022-12-18T05:36:17;-15.50;75.23
72355;SHT30;60314;55.040;73.076;2022-12-18T05:38:43;-15.44;75.02
72355;SHT30;60314;55.040;73.076;2022-12-18T05:41:10;-15.37;74.68
72355;SHT30;60314;55.040;73.076;2022-12-18T05:43:37;-15.25;74.72
72355;SHT30;60314;55.040;73.076;2022-12-18T05:46:05;-15.19;74.47
72355;SHT30;60314;55.040;73.076;2022-12-18T05:48:33;-15.20;74.52
72355;SHT30;60314;55.040;73.076;2022-12-18T05:51:11;-15.20;74.45
72355;SHT30;60314;55.040;73.076;2022-12-18T05:53:38;-15.15;74.49
72355;SHT30;60314;55.040;73.076;2022-12-18T05:56:07;-15.11;74.40
72355;SHT30;60314;55.040;73.076;2022-12-18T05:58:34;-15.09;74.33
72355;SHT30;60314;55.040;73.076;2022-12-18T06:01:11;-14.99;74.04
72355;SHT30;60314;55.040;73.076;2022-12-18T06:03:38;-14.89;73.78
72355;SHT30;60314;55.040;73.076;2022-12-18T06:06:16;-14.87;73.66
72355;SHT30;60314;55.040;73.076;2022-12-18T06:08:43;-14.81;74.07
72355;SHT30;60314;55.040;73.076;2022-12-18T06:11:10;-14.75;74.18
72355;SHT30;60314;55.040;73.076;2022-12-18T06:13:37;-14.67;74.21
72355;SHT30;60314;55.040;73.076;2022-12-18T06:16:14;-14.54;74.54
72355;SHT30;60314;55.040;73.076;2022-12-18T06:18:45;-14.46;74.38
72355;SHT30;60314;55.040;73.076;2022-12-18T06:21:12;-14.42;74.37
72355;SHT30;60314;55.040;73.076;2022-12-18T06:23:39;-14.37;74.45
72355;SHT30;60314;55.040;73.076;2022-12-18T06:26:09;-14.29;74.45
72355;SHT30;60314;55.040;73.076;2022-12-18T06:28:35;-14.23;74.52
72355;SHT30;60314;55.040;73.076;2022-12-18T06:31:06;-14.18;74.57
72355;SHT30;60314;55.040;73.076;2022-12-18T06:33:33;-14.09;74.63
72355;SHT30;60314;55.040;73.076;2022-12-18T06:36:06;-14.03;74.75
72355;SHT30;60314;55.040;73.076;2022-12-18T06:38:34;-13.88;74.87
72355;SHT30;60314;55.040;73.076;2022-12-18T06:41:07;-13.75;74.85
72355;SHT30;60314;55.040;73.076;2022-12-18T06:43:44;-13.70;74.98
72355;SHT30;60314;55.040;73.076;2022-12-18T06:46:11;-13.61;75.05
72355;SHT30;60314;55.040;73.076;2022-12-18T06:48:47;-13.50;75.62
72355;SHT30;60314;55.040;73.076;2022-12-18T06:51:25;-13.43;75.79
72355;SHT30;60314;55.040;73.076;2022-12-18T06:53:51;-13.40;75.87
72355;SHT30;60314;55.040;73.076;2022-12-18T06:56:28;-13.30;76.28
72355;SHT30;60314;55.040;73.076;2022-12-18T06:58:54;-13.22;76.23
72355;SHT30;60314;55.040;73.076;2022-12-18T07:01:26;-13.19;76.45
72355;SHT30;60314;55.040;73.076;2022-12-18T07:03:54;-13.12;76.49
72355;SHT30;60314;55.040;73.076;2022-12-18T07:06:26;-13.05;76.73
72355;SHT30;60314;55.040;73.076;2022-12-18T07:08:54;-12.96;76.85
72355;SHT30;60314;55.040;73.076;2022-12-18T07:11:21;-12.91;76.97
72355;SHT30;60314;55.040;73.076;2022-12-18T07:13:57;-12.85;76.83
72355;SHT30;60314;55.040;73.076;2022-12-18T07:16:26;-12.81;76.71
72355;SHT30;60314;55.040;73.076;2022-12-18T07:18:55;-12.74;76.82
72355;SHT30;60314;55.040;73.076;2022-12-18T07:21:23;-12.75;77.02
72355;SHT30;60314;55.040;73.076;2022-12-18T07:23:50;-12.67;77.09
72355;SHT30;60314;55.040;73.076;2022-12-18T07:26:24;-12.63;77.24
72355;SHT30;60314;55.040;73.076;2022-12-18T07:28:59;-12.64;77.22
72355;SHT30;60314;55.040;73.076;2022-12-18T07:31:26;-12.55;77.28
72355;SHT30;60314;55.040;73.076;2022-12-18T07:33:55;-12.54;77.12
72355;SHT30;60314;55.040;73.076;2022-12-18T07:36:22;-12.47;77.00
72355;SHT30;60314;55.040;73.076;2022-12-18T07:38:49;-12.50;76.99
72355;SHT30;60314;55.040;73.076;2022-12-18T07:41:18;-12.53;77.12
72355;SHT30;60314;55.040;73.076;2022-12-18T07:43:54;-12.45;77.00
72355;SHT30;60314;55.040;73.076;2022-12-18T07:46:31;-12.44;77.21
72355;SHT30;60314;55.040;73.076;2022-12-18T07:48:57;-12.38;76.80
72355;SHT30;60314;55.040;73.076;2022-12-18T07:51:24;-12.40;76.63
72355;SHT30;60314;55.040;73.076;2022-12-18T07:54:01;-12.40;76.28
72355;SHT30;60314;55.040;73.076;2022-12-18T07:56:28;-12.45;76.10
72355;SHT30;60314;55.040;73.076;2022-12-18T07:58:54;-12.44;76.06
72355;SHT30;60314;55.040;73.076;2022-12-18T08:01:21;-12.45;76.09
72355;SHT30;60314;55.040;73.076;2022-12-18T08:03:47;-12.43;75.75
72355;SHT30;60314;55.040;73.076;2022-12-18T08:06:14;-12.38;75.69
72355;SHT30;60314;55.040;73.076;2022-12-18T08:08:40;-12.36;75.77
72355;SHT30;60314;55.040;73.076;2022-12-18T08:11:12;-12.30;75.69
72355;SHT30;60314;55.040;73.076;2022-12-18T08:13:49;-12.23;75.50
72355;SHT30;60314;55.040;73.076;2022-12-18T08:16:16;-12.20;75.57
72355;SHT30;60314;55.040;73.076;2022-12-18T08:18:44;-12.16;75.48
72355;SHT30;60314;55.040;73.076;2022-12-18T08:21:16;-12.09;75.19
72355;SHT30;60314;55.040;73.076;2022-12-18T08:23:43;-11.99;74.34
72355;SHT30;60314;55.040;73.076;2022-12-18T08:26:20;-11.96;74.23
72355;SHT30;60314;55.040;73.076;2022-12-18T08:28:47;-12.03;74.18
72355;SHT30;60314;55.040;73.076;2022-12-18T08:31:20;-12.08;74.38
72355;SHT30;60314;55.040;73.076;2022-12-18T08:33:53;-12.02;74.83
72355;SHT30;60314;55.040;73.076;2022-12-18T08:36:20;-11.95;74.94
72355;SHT30;60314;55.040;73.076;2022-12-18T08:38:47;-12.00;75.22
72355;SHT30;60314;55.040;73.076;2022-12-18T08:41:24;-12.03;75.27
72355;SHT30;60314;55.040;73.076;2022-12-18T08:43:51;-12.06;75.57
72355;SHT30;60314;55.040;73.076;2022-12-18T08:46:38;-11.97;75.35
72355;SHT30;60314;55.040;73.076;2022-12-18T08:49:05;-11.95;75.45
72355;SHT30;60314;55.040;73.076;2022-12-18T08:51:33;-11.92;75.33
72355;SHT30;60314;55.040;73.076;2022-12-18T08:53:59;-11.90;75.28
72355;SHT30;60314;55.040;73.076;2022-12-18T08:56:26;-11.87;75.36
72355;SHT30;60314;55.040;73.076;2022-12-18T08:58:54;-11.89;75.35
72355;SHT30;60314;55.040;73.076;2022-12-18T09:01:21;-11.89;75.57
72355;SHT30;60314;55.040;73.076;2022-12-18T09:03:49;-11.86;75.56
72355;SHT30;60314;55.040;73.076;2022-12-18T09:06:22;-11.85;75.41
72355;SHT30;60314;55.040;73.076;2022-12-18T09:08:48;-11.86;75.36
72355;SHT30;60314;55.040;73.076;2022-12-18T09:11:23;-11.87;75.12
72355;SHT30;60314;55.040;73.076;2022-12-18T09:13:50;-11.92;75.13
72355;SHT30;60314;55.040;73.076;2022-12-18T09:16:17;-11.90;74.96
72355;SHT30;60314;55.040;73.076;2022-12-18T09:18:46;-11.92;74.78
72355;SHT30;60314;55.040;73.076;2022-12-18T09:21:14;-11.90;74.56
72355;SHT30;60314;55.040;73.076;2022-12-18T09:23:51;-11.96;74.64
72355;SHT30;60314;55.040;73.076;2022-12-18T09:26:17;-11.95;74.56
72355;SHT30;60314;55.040;73.076;2022-12-18T09:28:44;-11.97;74.58
72355;SHT30;60314;55.040;73.076;2022-12-18T09:31:18;-12.05;74.36
72355;SHT30;60314;55.040;73.076;2022-12-18T09:33:45;-12.05;74.33
72355;SHT30;60314;55.040;73.076;2022-12-18T09:36:13;-12.08;74.56
72355;SHT30;60314;55.040;73.076;2022-12-18T09:38:40;-12.12;74.52
72355;SHT30;60314;55.040;73.076;2022-12-18T09:41:41;-12.10;74.40
72355;SHT30;60314;55.040;73.076;2022-12-18T09:46:53;-12.26;73.88
72355;SHT30;60314;55.040;73.076;2022-12-18T09:49:23;-12.30;72.88
72355;SHT30;60314;55.040;73.076;2022-12-18T09:52:04;-12.36;72.70
72355;SHT30;60314;55.040;73.076;2022-12-18T09:54:53;-12.41;72.41
72355;SHT30;60314;55.040;73.076;2022-12-18T09:57:23;-12.50;71.48
72355;SHT30;60314;55.040;73.076;2022-12-18T09:59:56;-12.55;71.53
72355;SHT30;60314;55.040;73.076;2022-12-18T10:02:30;-12.60;71.91
72355;SHT30;60314;55.040;73.076;2022-12-18T10:05:10;-12.58;72.01
72355;SHT30;60314;55.040;73.076;2022-12-18T10:18:43;-13.31;71.94
72355;SHT30;60314;55.040;73.076;2022-12-18T10:21:21;-13.36;72.28
72355;SHT30;60314;55.040;73.076;2022-12-18T10:26:25;-13.58;71.62
72355;SHT30;60314;55.040;73.076;2022-12-18T10:28:53;-13.67;71.67
72355;SHT30;60314;55.040;73.076;2022-12-18T10:31:22;-13.68;70.99
72355;SHT30;60314;55.040;73.076;2022-12-18T10:33:49;-13.71;71.54
72355;SHT30;60314;55.040;73.076;2022-12-18T10:36:16;-13.70;72.94
72355;SHT30;60314;55.040;73.076;2022-12-18T10:38:42;-13.71;73.28
72355;SHT30;60314;55.040;73.076;2022-12-18T10:41:29;-13.78;70.57
72355;SHT30;60314;55.040;73.076;2022-12-18T10:44:17;-13.88;71.24
72355;SHT30;60314;55.040;73.076;2022-12-18T10:46:46;-13.98;69.68
72355;SHT30;60314;55.040;73.076;2022-12-18T10:49:27;-14.06;69.02
72355;SHT30;60314;55.040;73.076;2022-12-18T10:52:17;-14.12;68.90
72355;SHT30;60314;55.040;73.076;2022-12-18T10:54:57;-14.16;68.72
72355;SHT30;60314;55.040;73.076;2022-12-18T10:57:35;-14.22;67.62
72355;SHT30;60314;55.040;73.076;2022-12-18T11:00:38;-14.43;66.14
72355;SHT30;60314;55.040;73.076;2022-12-18T11:03:37;-14.80;67.32
72355;SHT30;60314;55.040;73.076;2022-12-18T11:06:14;-15.06;65.85
72355;SHT30;60314;55.040;73.076;2022-12-18T11:08:43;-15.18;69.78
72355;SHT30;60314;55.040;73.076;2022-12-18T11:11:21;-15.06;73.64
72355;SHT30;60314;55.040;73.076;2022-12-18T11:16:46;-14.87;75.75
72355;SHT30;60314;55.040;73.076;2022-12-18T11:19:33;-14.81;72.47
72355;SHT30;60314;55.040;73.076;2022-12-18T11:22:02;-14.84;70.82
72355;SHT30;60314;55.040;73.076;2022-12-18T11:27:03;-14.70;70.40
72355;SHT30;60314;55.040;73.076;2022-12-18T11:29:38;-14.65;70.25
72355;SHT30;60314;55.040;73.076;2022-12-18T11:34:45;-14.64;70.80
72355;SHT30;60314;55.040;73.076;2022-12-18T11:37:17;-14.68;69.89
72355;SHT30;60314;55.040;73.076;2022-12-18T11:39:51;-14.68;70.66
72355;SHT30;60314;55.040;73.076;2022-12-18T11:42:27;-14.67;71.09
72355;SHT30;60314;55.040;73.076;2022-12-18T11:45:06;-14.60;71.65
72355;SHT30;60314;55.040;73.076;2022-12-18T11:47:44;-14.44;71.75
72355;SHT30;60314;55.040;73.076;2022-12-18T11:50:41;-14.37;71.96
72355;SHT30;60314;55.040;73.076;2022-12-18T11:53:11;-14.33;72.41
72355;SHT30;60314;55.040;73.076;2022-12-18T11:55:45;-14.30;73.02
72355;SHT30;60314;55.040;73.076;2022-12-18T12:09:23;-13.99;74.93
72355;SHT30;60314;55.040;73.076;2022-12-18T12:17:44;-13.67;75.29
72355;SHT30;60314;55.040;73.076;2022-12-18T12:20:18;-13.55;76.89
72355;SHT30;60314;55.040;73.076;2022-12-18T12:22:57;-13.43;77.83
72355;SHT30;60314;55.040;73.076;2022-12-18T12:39:46;-13.03;78.87
72355;SHT30;60314;55.040;73.076;2022-12-18T12:42:31;-12.98;78.84
72355;SHT30;60314;55.040;73.076;2022-12-18T12:45:28;-12.92;79.20
72355;SHT30;60314;55.040;73.076;2022-12-18T12:48:04;-12.89;79.57
72355;SHT30;60314;55.040;73.076;2022-12-18T12:50:34;-12.81;79.62
72355;SHT30;60314;55.040;73.076;2022-12-18T12:53:07;-12.75;79.51
72355;SHT30;60314;55.040;73.076;2022-12-18T12:55:35;-12.67;79.45
72355;SHT30;60314;55.040;73.076;2022-12-18T12:58:20;-12.58;79.40
72355;SHT30;60314;55.040;73.076;2022-12-18T13:01:10;-12.53;79.14
72355;SHT30;60314;55.040;73.076;2022-12-18T13:09:22;-12.37;79.05
72355;SHT30;60314;55.040;73.076;2022-12-18T13:11:48;-12.29;78.62
72355;SHT30;60314;55.040;73.076;2022-12-18T13:14:38;-12.19;78.07
72355;SHT30;60314;55.040;73.076;2022-12-18T13:20:12;-12.05;77.51
72355;SHT30;60314;55.040;73.076;2022-12-18T13:22:45;-11.97;77.47
72355;SHT30;60314;55.040;73.076;2022-12-18T13:25:32;-11.96;77.38
72355;SHT30;60314;55.040;73.076;2022-12-18T13:28:13;-11.97;77.43
72355;SHT30;60314;55.040;73.076;2022-12-18T13:30:57;-11.99;77.57
72355;SHT30;60314;55.040;73.076;2022-12-18T13:41:47;-11.82;77.60
72355;SHT30;60314;55.040;73.076;2022-12-18T13:44:32;-11.79;77.41
72355;SHT30;60314;55.040;73.076;2022-12-18T13:47:01;-11.73;77.43
72355;SHT30;60314;55.040;73.076;2022-12-18T13:49:39;-11.66;77.23
72355;SHT30;60314;55.040;73.076;2022-12-18T13:52:18;-11.62;77.20
72355;SHT30;60314;55.040;73.076;2022-12-18T13:54:57;-11.58;77.45
72355;SHT30;60314;55.040;73.076;2022-12-18T13:59:56;-11.52;77.67
72355;SHT30;60314;55.040;73.076;2022-12-18T14:02:25;-11.55;77.97
72355;SHT30;60314;55.040;73.076;2022-12-18T14:04:52;-11.47;77.88
72355;SHT30;60314;55.040;73.076;2022-12-18T14:09:49;-11.38;77.71
72355;SHT30;60314;55.040;73.076;2022-12-18T14:12:26;-11.37;77.62
72355;SHT30;60314;55.040;73.076;2022-12-18T14:20:29;-11.31;77.65
72355;SHT30;60314;55.040;73.076;2022-12-18T14:23:01;-11.31;77.82
72355;SHT30;60314;55.040;73.076;2022-12-18T14:25:30;-11.34;78.03
72355;SHT30;60314;55.040;73.076;2022-12-18T14:28:13;-11.30;77.94
72355;SHT30;60314;55.040;73.076;2022-12-18T14:30:46;-11.26;77.84
72355;SHT30;60314;55.040;73.076;2022-12-18T14:33:27;-11.24;77.92
72355;SHT30;60314;55.040;73.076;2022-12-18T14:35:57;-11.23;77.75
72355;SHT30;60314;55.040;73.076;2022-12-18T14:38:28;-11.21;77.51
72355;SHT30;60314;55.040;73.076;2022-12-18T14:41:15;-11.19;77.36
72355;SHT30;60314;55.040;73.076;2022-12-18T14:43:44;-11.21;77.33
72355;SHT30;60314;55.040;73.076;2022-12-18T14:49:00;-11.27;77.56
72355;SHT30;60314;55.040;73.076;2022-12-18T14:51:36;-11.26;77.78
72355;SHT30;60314;55.040;73.076;2022-12-18T14:54:05;-11.26;77.79
72355;SHT30;60314;55.040;73.076;2022-12-18T14:56:46;-11.26;77.99
72355;SHT30;60314;55.040;73.076;2022-12-18T14:59:14;-11.21;77.94
72355;SHT30;60314;55.040;73.076;2022-12-18T15:01:51;-11.26;77.93
72355;SHT30;60314;55.040;73.076;2022-12-18T15:04:25;-11.20;78.01
72355;SHT30;60314;55.040;73.076;2022-12-18T15:09:31;-11.13;77.87
72355;SHT30;60314;55.040;73.076;2022-12-18T15:11:59;-11.11;77.89
72355;SHT30;60314;55.040;73.076;2022-12-18T15:14:41;-11.07;77.99
72355;SHT30;60314;55.040;73.076;2022-12-18T15:17:19;-11.04;77.83
72355;SHT30;60314;55.040;73.076;2022-12-18T15:19:58;-10.99;77.85
72355;SHT30;60314;55.040;73.076;2022-12-18T15:22:29;-10.95;77.86
72355;SHT30;60314;55.040;73.076;2022-12-18T15:25:03;-10.93;77.82
72355;SHT30;60314;55.040;73.076;2022-12-18T15:27:47;-10.84;77.58
72355;SHT30;60314;55.040;73.076;2022-12-18T15:30:19;-10.89;77.62
72355;SHT30;60314;55.040;73.076;2022-12-18T15:33:22;-10.83;77.84
72355;SHT30;60314;55.040;73.076;2022-12-18T15:36:08;-10.83;77.81
72355;SHT30;60314;55.040;73.076;2022-12-18T15:38:49;-10.82;77.92
72355;SHT30;60314;55.040;73.076;2022-12-18T15:41:20;-10.82;77.89
72355;SHT30;60314;55.040;73.076;2022-12-18T15:43:48;-10.77;77.99
72355;SHT30;60314;55.040;73.076;2022-12-18T15:46:19;-10.75;77.88
72355;SHT30;60314;55.040;73.076;2022-12-18T15:48:56;-10.79;77.74
72355;SHT30;60314;55.040;73.076;2022-12-18T15:51:26;-10.76;77.80
72355;SHT30;60314;55.040;73.076;2022-12-18T15:53:55;-10.77;77.75
72355;SHT30;60314;55.040;73.076;2022-12-18T15:56:22;-10.79;77.91
72355;SHT30;60314;55.040;73.076;2022-12-18T15:59:16;-10.80;78.21
72355;SHT30;60314;55.040;73.076;2022-12-18T16:01:50;-10.75;78.20
72355;SHT30;60314;55.040;73.076;2022-12-18T16:04:20;-10.73;77.86
72355;SHT30;60314;55.040;73.076;2022-12-18T16:06:48;-10.73;77.90
72355;SHT30;60314;55.040;73.076;2022-12-18T16:09:15;-10.73;77.92
72355;SHT30;60314;55.040;73.076;2022-12-18T16:11:42;-10.70;77.98
72355;SHT30;60314;55.040;73.076;2022-12-18T16:14:12;-10.70;77.72
72355;SHT30;60314;55.040;73.076;2022-12-18T16:16:41;-10.72;77.72
72355;SHT30;60314;55.040;73.076;2022-12-18T16:19:13;-10.73;77.70
72355;SHT30;60314;55.040;73.076;2022-12-18T16:21:51;-10.76;77.85
72355;SHT30;60314;55.040;73.076;2022-12-18T16:24:29;-10.82;77.99
72355;SHT30;60314;55.040;73.076;2022-12-18T16:26:57;-10.80;78.25
72355;SHT30;60314;55.040;73.076;2022-12-18T16:29:26;-10.77;78.38
72355;SHT30;60314;55.040;73.076;2022-12-18T16:31:57;-10.73;78.38
72355;SHT30;60314;55.040;73.076;2022-12-18T16:34:26;-10.76;78.20
72355;SHT30;60314;55.040;73.076;2022-12-18T16:36:59;-10.76;78.47
72355;SHT30;60314;55.040;73.076;2022-12-18T16:39:26;-10.77;78.54
72355;SHT30;60314;55.040;73.076;2022-12-18T16:41:58;-10.77;78.54
72355;SHT30;60314;55.040;73.076;2022-12-18T16:44:29;-10.73;78.57
72355;SHT30;60314;55.040;73.076;2022-12-18T16:46:56;-10.75;78.53
72355;SHT30;60314;55.040;73.076;2022-12-18T16:49:28;-10.70;78.69
72355;SHT30;60314;55.040;73.076;2022-12-18T16:51:54;-10.70;78.63
72355;SHT30;60314;55.040;73.076;2022-12-18T16:54:26;-10.70;78.83
72355;SHT30;60314;55.040;73.076;2022-12-18T16:56:56;-10.69;78.85
72355;SHT30;60314;55.040;73.076;2022-12-18T16:59:22;-10.68;78.86
72355;SHT30;60314;55.040;73.076;2022-12-18T17:01:49;-10.76;78.89
72355;SHT30;60314;55.040;73.076;2022-12-18T17:04:15;-10.75;79.17
72355;SHT30;60314;55.040;73.076;2022-12-18T17:06:44;-10.76;79.27
72355;SHT30;60314;55.040;73.076;2022-12-18T17:09:12;-10.73;79.14
72355;SHT30;60314;55.040;73.076;2022-12-18T17:11:48;-10.73;79.37
72355;SHT30;60314;55.040;73.076;2022-12-18T17:14:23;-10.72;79.48
72355;SHT30;60314;55.040;73.076;2022-12-18T17:16:50;-10.72;79.65
72355;SHT30;60314;55.040;73.076;2022-12-18T17:19:17;-10.68;79.57
72355;SHT30;60314;55.040;73.076;2022-12-18T17:21:47;-10.69;79.58
72355;SHT30;60314;55.040;73.076;2022-12-18T17:24:19;-10.72;79.73
72355;SHT30;60314;55.040;73.076;2022-12-18T17:26:47;-10.70;79.89
72355;SHT30;60314;55.040;73.076;2022-12-18T17:29:16;-10.63;79.82
72355;SHT30;60314;55.040;73.076;2022-12-18T17:31:43;-10.66;79.79